Terminal Aerodrome Forecast
Issued by NWS Greer, SC

Home | Current Version | Previous Version | Text Only | Print | Product List | Glossary On
Versions: 1 2 3 4 5 6 7 8 9 10 11 12 13 14 15 16 17 18 19 20 21 22
000
FTUS42 KGSP 211735
TAFCLT
TAF
KCLT 211735Z 2118/2218 13007KT P6SM BKN250
     FM212200 10006KT P6SM BKN045
     FM220700 08004KT P6SM OVC015 PROB30 2207/2210 4SM -SHRA OVC007
     FM221000 10003KT 4SM -SHRA BR OVC007
     FM221400 11004KT P6SM OVC008=

USA.gov is the U.S. government's official web portal to all federal, state and local government web resources and services.